Spirit Lake, IA (51360)

12:55 AM CDT on July 25, 2016 (GMT -0500)
APRSWXNET | | Change Station

Elev 1469 ft 43.42 °N, 95.10 °W | Updated 24 minutes ago

Clear
Clear
69 °F
Feels Like 69 °F
N
0
Wind Variable Wind from West
Gusts 0.0 mph

Today
High -- | Low -- °F
--% Chance of Precip.
Yesterday
High -- | Low -- °F
Precip. -- in
Pressure 30.07 in
Visibility 10.0 miles
Clouds Clear
Dew Point 63 °F
Humidity 82%
Rainfall in
Snow Depth Not available.
6:03 AM 8:49 PM
Waning Gibbous, 69% visible
METAR KMJQ 250532Z AUTO 25003KT 10SM CLR 18/15 A3007 RMK AO2
Pressure 30.07 in
Visibility 10.0 miles
Clouds Clear
Dew Point 63 °F
Humidity 82%
Rainfall in
Snow Depth Not available.
6:03 AM 8:49 PM
Waning Gibbous, 69% visible
METAR KMJQ 250532Z AUTO 25003KT 10SM CLR 18/15 A3007 RMK AO2

10-Day Weather Forecast

Almanac

Astronomy

Jul. 25, 2016 Rise Set
Actual Time
Civil Twilight
Nautical Twilight
Astronomical Twilight
Moon
Length of Visible Light
Length of Day
Tomorrow will be .
, % of the Moon is Illuminated

Today's Extremes

State Highs State Lows

Community

WunderPhotos

Upload Photos

1,927,274 photos uploaded!

WunderBlog® & News

Nearby

Air Quality

  Air Quality AQ Index Pollutant
Not available.

Snow Depth

Station Depth Elevation

Earthquake Activity

City Distance Mag. Time & Date
Minimum magnitude displayed is 2.5.

Coastal Water Temperatures

Place Temperature

Stations

Nearby Weather Stations

Station Location Temp. Windchill Dew Point Humidity Wind Precip. Elev Updated Type
                   

Watches & Warnings

There are currently no watches in effect.